sensor_id;sensor_type;location;lat;lon;timestamp;P1;durP1;ratioP1;P2;durP2;ratioP2
20984;SDS011;10651;47.552;7.606;2022-09-20T05:29:00;13.48;;;4.30;;
20984;SDS011;10651;47.552;7.606;2022-09-20T05:32:00;8.63;;;4.25;;
20984;SDS011;10651;47.552;7.606;2022-09-20T05:59:33;10.57;;;4.15;;
20984;SDS011;10651;47.552;7.606;2022-09-20T06:11:09;8.65;;;4.13;;
20984;SDS011;10651;47.552;7.606;2022-09-20T06:14:03;8.13;;;3.35;;
20984;SDS011;10651;47.552;7.606;2022-09-20T06:19:34;12.02;;;3.80;;
20984;SDS011;10651;47.552;7.606;2022-09-20T06:22:23;12.57;;;4.78;;
20984;SDS011;10651;47.552;7.606;2022-09-20T06:25:02;11.23;;;4.55;;
20984;SDS011;10651;47.552;7.606;2022-09-20T06:30:24;5.40;;;4.10;;
20984;SDS011;10651;47.552;7.606;2022-09-20T06:32:58;8.95;;;4.15;;
20984;SDS011;10651;47.552;7.606;2022-09-20T06:42:07;12.07;;;3.85;;
20984;SDS011;10651;47.552;7.606;2022-09-20T06:45:06;12.43;;;4.43;;
20984;SDS011;10651;47.552;7.606;2022-09-20T06:47:35;11.68;;;4.15;;
20984;SDS011;10651;47.552;7.606;2022-09-20T06:50:11;11.93;;;4.72;;
20984;SDS011;10651;47.552;7.606;2022-09-20T06:52:52;9.77;;;3.58;;
20984;SDS011;10651;47.552;7.606;2022-09-20T06:55:21;12.30;;;4.47;;
20984;SDS011;10651;47.552;7.606;2022-09-20T06:57:56;14.02;;;4.65;;
20984;SDS011;10651;47.552;7.606;2022-09-20T07:00:25;47.28;;;20.45;;
20984;SDS011;10651;47.552;7.606;2022-09-20T07:02:56;25.17;;;7.60;;
20984;SDS011;10651;47.552;7.606;2022-09-20T07:05:22;16.50;;;5.40;;
20984;SDS011;10651;47.552;7.606;2022-09-20T07:07:54;8.43;;;3.67;;
20984;SDS011;10651;47.552;7.606;2022-09-20T07:11:06;12.35;;;4.57;;
20984;SDS011;10651;47.552;7.606;2022-09-20T07:13:54;10.13;;;4.63;;
20984;SDS011;10651;47.552;7.606;2022-09-20T07:16:44;7.57;;;4.40;;
20984;SDS011;10651;47.552;7.606;2022-09-20T07:19:18;11.10;;;3.85;;
20984;SDS011;10651;47.552;7.606;2022-09-20T07:22:24;7.45;;;4.25;;
20984;SDS011;10651;47.552;7.606;2022-09-20T07:25:00;15.50;;;4.03;;
20984;SDS011;10651;47.552;7.606;2022-09-20T07:28:34;7.13;;;3.72;;
20984;SDS011;10651;47.552;7.606;2022-09-20T07:33:43;17.15;;;4.18;;
20984;SDS011;10651;47.552;7.606;2022-09-20T07:36:13;8.43;;;3.85;;
20984;SDS011;10651;47.552;7.606;2022-09-20T07:38:41;9.50;;;4.30;;
20984;SDS011;10651;47.552;7.606;2022-09-20T07:41:23;10.15;;;3.75;;
20984;SDS011;10651;47.552;7.606;2022-09-20T07:47:31;16.55;;;4.35;;
20984;SDS011;10651;47.552;7.606;2022-09-20T07:50:11;13.55;;;4.00;;
20984;SDS011;10651;47.552;7.606;2022-09-20T07:59:55;24.23;;;5.00;;
20984;SDS011;10651;47.552;7.606;2022-09-20T08:02:56;14.50;;;4.03;;
20984;SDS011;10651;47.552;7.606;2022-09-20T08:05:41;6.13;;;3.83;;
20984;SDS011;10651;47.552;7.606;2022-09-20T08:08:37;14.23;;;4.68;;
20984;SDS011;10651;47.552;7.606;2022-09-20T08:18:09;18.60;;;4.43;;
20984;SDS011;10651;47.552;7.606;2022-09-20T08:25:39;16.70;;;4.65;;
20984;SDS011;10651;47.552;7.606;2022-09-20T08:41:56;15.63;;;4.60;;
20984;SDS011;10651;47.552;7.606;2022-09-20T08:48:11;7.95;;;4.90;;
20984;SDS011;10651;47.552;7.606;2022-09-20T08:51:08;16.73;;;4.30;;
20984;SDS011;10651;47.552;7.606;2022-09-20T09:00:44;13.38;;;4.30;;
20984;SDS011;10651;47.552;7.606;2022-09-20T09:03:57;10.88;;;3.50;;
20984;SDS011;10651;47.552;7.606;2022-09-20T09:51:34;10.15;;;3.00;;
20984;SDS011;10651;47.552;7.606;2022-09-20T10:41:12;8.05;;;1.98;;
20984;SDS011;10651;47.552;7.606;2022-09-20T10:50:12;5.32;;;1.92;;
20984;SDS011;10651;47.552;7.606;2022-09-20T11:08:12;10.07;;;1.98;;
20984;SDS011;10651;47.552;7.606;2022-09-20T11:14:19;8.32;;;1.30;;
20984;SDS011;10651;47.552;7.606;2022-09-20T11:20:23;8.23;;;1.60;;
20984;SDS011;10651;47.552;7.606;2022-09-20T11:25:57;5.18;;;1.42;;
20984;SDS011;10651;47.552;7.606;2022-09-20T11:28:46;5.63;;;1.75;;
20984;SDS011;10651;47.552;7.606;2022-09-20T11:31:42;6.15;;;1.20;;
20984;SDS011;10651;47.552;7.606;2022-09-20T11:37:34;6.18;;;1.25;;
20984;SDS011;10651;47.552;7.606;2022-09-20T11:40:26;6.78;;;1.27;;
20984;SDS011;10651;47.552;7.606;2022-09-20T11:42:58;9.27;;;3.17;;
20984;SDS011;10651;47.552;7.606;2022-09-20T11:58:09;5.13;;;1.17;;
20984;SDS011;10651;47.552;7.606;2022-09-20T12:00:55;3.85;;;1.27;;
20984;SDS011;10651;47.552;7.606;2022-09-20T12:03:39;3.22;;;0.80;;
20984;SDS011;10651;47.552;7.606;2022-09-20T12:06:38;2.78;;;0.93;;
20984;SDS011;10651;47.552;7.606;2022-09-20T12:13:00;3.95;;;0.82;;
20984;SDS011;10651;47.552;7.606;2022-09-20T12:19:13;3.35;;;0.80;;
20984;SDS011;10651;47.552;7.606;2022-09-20T12:24:49;3.97;;;1.13;;
20984;SDS011;10651;47.552;7.606;2022-09-20T12:33:53;2.53;;;0.70;;
20984;SDS011;10651;47.552;7.606;2022-09-20T12:40:13;2.95;;;0.73;;
20984;SDS011;10651;47.552;7.606;2022-09-20T12:49:55;1.98;;;0.50;;
20984;SDS011;10651;47.552;7.606;2022-09-20T12:56:18;0.95;;;0.43;;
20984;SDS011;10651;47.552;7.606;2022-09-20T13:02:39;2.83;;;0.52;;
20984;SDS011;10651;47.552;7.606;2022-09-20T13:05:31;3.47;;;0.70;;
20984;SDS011;10651;47.552;7.606;2022-09-20T13:08:21;1.75;;;0.57;;
20984;SDS011;10651;47.552;7.606;2022-09-20T13:14:19;3.50;;;0.80;;
20984;SDS011;10651;47.552;7.606;2022-09-20T13:23:29;3.25;;;2.05;;
20984;SDS011;10651;47.552;7.606;2022-09-20T13:26:27;1.52;;;0.60;;
20984;SDS011;10651;47.552;7.606;2022-09-20T13:29:33;2.70;;;0.55;;
20984;SDS011;10651;47.552;7.606;2022-09-20T13:32:32;2.45;;;0.43;;
20984;SDS011;10651;47.552;7.606;2022-09-20T13:35:25;2.90;;;0.63;;
20984;SDS011;10651;47.552;7.606;2022-09-20T13:38:04;1.45;;;0.35;;
20984;SDS011;10651;47.552;7.606;2022-09-20T13:40:46;0.28;;;0.20;;
20984;SDS011;10651;47.552;7.606;2022-09-20T13:43:41;2.17;;;0.63;;
20984;SDS011;10651;47.552;7.606;2022-09-20T13:46:12;1.08;;;0.50;;
20984;SDS011;10651;47.552;7.606;2022-09-20T13:48:47;1.88;;;0.80;;
20984;SDS011;10651;47.552;7.606;2022-09-20T13:51:25;3.20;;;0.40;;
20984;SDS011;10651;47.552;7.606;2022-09-20T13:54:38;4.70;;;0.73;;
20984;SDS011;10651;47.552;7.606;2022-09-20T13:57:26;1.35;;;0.38;;
20984;SDS011;10651;47.552;7.606;2022-09-20T13:59:59;2.78;;;0.52;;
20984;SDS011;10651;47.552;7.606;2022-09-20T14:02:56;1.17;;;0.45;;
20984;SDS011;10651;47.552;7.606;2022-09-20T14:05:24;2.45;;;0.60;;
20984;SDS011;10651;47.552;7.606;2022-09-20T14:07:57;0.95;;;0.30;;
20984;SDS011;10651;47.552;7.606;2022-09-20T14:11:02;15.13;;;1.13;;
20984;SDS011;10651;47.552;7.606;2022-09-20T14:16:33;1.63;;;0.60;;
20984;SDS011;10651;47.552;7.606;2022-09-20T14:19:19;1.52;;;0.60;;
20984;SDS011;10651;47.552;7.606;2022-09-20T14:21:57;1.48;;;0.50;;
20984;SDS011;10651;47.552;7.606;2022-09-20T14:24:54;1.08;;;0.68;;
20984;SDS011;10651;47.552;7.606;2022-09-20T14:27:27;5.22;;;0.68;;
20984;SDS011;10651;47.552;7.606;2022-09-20T14:29:58;4.05;;;0.95;;
20984;SDS011;10651;47.552;7.606;2022-09-20T14:32:38;1.25;;;0.70;;
20984;SDS011;10651;47.552;7.606;2022-09-20T14:38:28;5.75;;;0.52;;
20984;SDS011;10651;47.552;7.606;2022-09-20T14:41:01;3.40;;;0.73;;
20984;SDS011;10651;47.552;7.606;2022-09-20T14:43:36;3.00;;;0.55;;
20984;SDS011;10651;47.552;7.606;2022-09-20T14:46:13;1.05;;;0.45;;
20984;SDS011;10651;47.552;7.606;2022-09-20T14:48:44;2.70;;;0.77;;
20984;SDS011;10651;47.552;7.606;2022-09-20T14:51:11;2.03;;;0.40;;
20984;SDS011;10651;47.552;7.606;2022-09-20T14:59:40;6.80;;;0.77;;
20984;SDS011;10651;47.552;7.606;2022-09-20T15:02:17;3.67;;;0.75;;
20984;SDS011;10651;47.552;7.606;2022-09-20T15:05:17;1.48;;;0.63;;
20984;SDS011;10651;47.552;7.606;2022-09-20T15:07:54;4.53;;;1.20;;
20984;SDS011;10651;47.552;7.606;2022-09-20T15:10:38;2.00;;;0.95;;
20984;SDS011;10651;47.552;7.606;2022-09-20T15:13:16;5.35;;;0.82;;
20984;SDS011;10651;47.552;7.606;2022-09-20T15:15:48;7.50;;;0.75;;
20984;SDS011;10651;47.552;7.606;2022-09-20T15:18:17;4.68;;;1.15;;
20984;SDS011;10651;47.552;7.606;2022-09-20T15:20:47;2.30;;;0.70;;
20984;SDS011;10651;47.552;7.606;2022-09-20T15:23:22;1.77;;;0.80;;
20984;SDS011;10651;47.552;7.606;2022-09-20T15:25:51;0.77;;;0.60;;
20984;SDS011;10651;47.552;7.606;2022-09-20T15:28:18;2.13;;;0.60;;
20984;SDS011;10651;47.552;7.606;2022-09-20T15:30:52;0.90;;;0.75;;
20984;SDS011;10651;47.552;7.606;2022-09-20T15:33:18;2.28;;;0.80;;
20984;SDS011;10651;47.552;7.606;2022-09-20T15:35:45;2.47;;;0.80;;
20984;SDS011;10651;47.552;7.606;2022-09-20T15:38:14;3.13;;;0.50;;
20984;SDS011;10651;47.552;7.606;2022-09-20T15:40:51;1.50;;;0.82;;
20984;SDS011;10651;47.552;7.606;2022-09-20T15:43:18;1.40;;;0.70;;
20984;SDS011;10651;47.552;7.606;2022-09-20T15:45:54;2.50;;;0.73;;
20984;SDS011;10651;47.552;7.606;2022-09-20T15:48:39;1.88;;;0.50;;
20984;SDS011;10651;47.552;7.606;2022-09-20T15:51:06;2.15;;;0.77;;
20984;SDS011;10651;47.552;7.606;2022-09-20T15:53:38;1.55;;;0.60;;
20984;SDS011;10651;47.552;7.606;2022-09-20T15:56:19;1.70;;;0.95;;
20984;SDS011;10651;47.552;7.606;2022-09-20T15:58:48;4.05;;;0.80;;
20984;SDS011;10651;47.552;7.606;2022-09-20T16:01:16;3.70;;;0.90;;
20984;SDS011;10651;47.552;7.606;2022-09-20T16:03:43;6.18;;;0.90;;
20984;SDS011;10651;47.552;7.606;2022-09-20T16:06:10;1.92;;;0.88;;
20984;SDS011;10651;47.552;7.606;2022-09-20T16:08:41;3.67;;;0.82;;
20984;SDS011;10651;47.552;7.606;2022-09-20T16:11:08;1.58;;;0.73;;
20984;SDS011;10651;47.552;7.606;2022-09-20T16:13:58;2.53;;;1.00;;
20984;SDS011;10651;47.552;7.606;2022-09-20T16:16:46;1.85;;;0.80;;
20984;SDS011;10651;47.552;7.606;2022-09-20T16:19:32;3.38;;;1.10;;
20984;SDS011;10651;47.552;7.606;2022-09-20T16:22:04;1.88;;;1.15;;
20984;SDS011;10651;47.552;7.606;2022-09-20T16:27:43;3.92;;;0.75;;
20984;SDS011;10651;47.552;7.606;2022-09-20T16:30:09;3.42;;;1.00;;
20984;SDS011;10651;47.552;7.606;2022-09-20T16:32:44;5.07;;;1.30;;
20984;SDS011;10651;47.552;7.606;2022-09-20T16:35:25;1.52;;;0.73;;
20984;SDS011;10651;47.552;7.606;2022-09-20T16:37:51;2.45;;;0.88;;
20984;SDS011;10651;47.552;7.606;2022-09-20T16:40:21;1.40;;;0.90;;
20984;SDS011;10651;47.552;7.606;2022-09-20T16:42:47;3.08;;;0.93;;
20984;SDS011;10651;47.552;7.606;2022-09-20T16:45:13;3.42;;;0.98;;
20984;SDS011;10651;47.552;7.606;2022-09-20T16:47:41;2.55;;;1.15;;
20984;SDS011;10651;47.552;7.606;2022-09-20T16:50:09;3.05;;;1.10;;
20984;SDS011;10651;47.552;7.606;2022-09-20T16:52:36;0.80;;;0.75;;
20984;SDS011;10651;47.552;7.606;2022-09-20T16:55:03;3.42;;;0.90;;
20984;SDS011;10651;47.552;7.606;2022-09-20T16:57:29;3.50;;;1.00;;
20984;SDS011;10651;47.552;7.606;2022-09-20T16:59:56;2.15;;;1.48;;
20984;SDS011;10651;47.552;7.606;2022-09-20T17:02:24;6.72;;;0.98;;
20984;SDS011;10651;47.552;7.606;2022-09-20T17:04:50;3.85;;;1.05;;
20984;SDS011;10651;47.552;7.606;2022-09-20T17:07:16;3.78;;;1.40;;
20984;SDS011;10651;47.552;7.606;2022-09-20T17:09:42;3.65;;;1.08;;
20984;SDS011;10651;47.552;7.606;2022-09-20T17:12:07;2.88;;;1.30;;
20984;SDS011;10651;47.552;7.606;2022-09-20T17:14:33;3.35;;;1.65;;
20984;SDS011;10651;47.552;7.606;2022-09-20T17:16:59;3.03;;;1.23;;
20984;SDS011;10651;47.552;7.606;2022-09-20T17:19:25;4.65;;;1.35;;
20984;SDS011;10651;47.552;7.606;2022-09-20T17:21:53;6.88;;;1.23;;
20984;SDS011;10651;47.552;7.606;2022-09-20T17:24:20;1.70;;;1.00;;
20984;SDS011;10651;47.552;7.606;2022-09-20T17:26:46;1.67;;;1.25;;
20984;SDS011;10651;47.552;7.606;2022-09-20T17:29:16;2.05;;;1.40;;
20984;SDS011;10651;47.552;7.606;2022-09-20T17:31:43;2.22;;;1.45;;
20984;SDS011;10651;47.552;7.606;2022-09-20T17:34:11;3.13;;;1.25;;
20984;SDS011;10651;47.552;7.606;2022-09-20T17:36:40;6.75;;;1.60;;
20984;SDS011;10651;47.552;7.606;2022-09-20T17:39:07;2.47;;;1.50;;
20984;SDS011;10651;47.552;7.606;2022-09-20T17:41:36;8.15;;;1.50;;
20984;SDS011;10651;47.552;7.606;2022-09-20T17:44:06;4.85;;;1.73;;
20984;SDS011;10651;47.552;7.606;2022-09-20T17:46:34;4.75;;;1.40;;
20984;SDS011;10651;47.552;7.606;2022-09-20T17:49:03;3.15;;;1.42;;
20984;SDS011;10651;47.552;7.606;2022-09-20T17:51:34;4.55;;;1.30;;
20984;SDS011;10651;47.552;7.606;2022-09-20T17:54:10;2.55;;;1.20;;
20984;SDS011;10651;47.552;7.606;2022-09-20T17:56:40;5.05;;;1.75;;
20984;SDS011;10651;47.552;7.606;2022-09-20T17:59:07;4.78;;;1.27;;
20984;SDS011;10651;47.552;7.606;2022-09-20T18:01:36;2.92;;;1.40;;
20984;SDS011;10651;47.552;7.606;2022-09-20T18:04:03;4.95;;;1.73;;
20984;SDS011;10651;47.552;7.606;2022-09-20T18:06:35;1.92;;;1.35;;
20984;SDS011;10651;47.552;7.606;2022-09-20T18:09:03;3.13;;;1.30;;
20984;SDS011;10651;47.552;7.606;2022-09-20T18:11:32;5.30;;;1.60;;
20984;SDS011;10651;47.552;7.606;2022-09-20T18:14:10;4.97;;;1.58;;
20984;SDS011;10651;47.552;7.606;2022-09-20T18:16:40;4.22;;;1.60;;
20984;SDS011;10651;47.552;7.606;2022-09-20T18:19:14;3.63;;;1.55;;
20984;SDS011;10651;47.552;7.606;2022-09-20T18:22:03;5.00;;;1.55;;
20984;SDS011;10651;47.552;7.606;2022-09-20T18:24:35;4.22;;;1.70;;
20984;SDS011;10651;47.552;7.606;2022-09-20T18:27:03;5.18;;;1.77;;
20984;SDS011;10651;47.552;7.606;2022-09-20T18:29:32;3.13;;;1.60;;
20984;SDS011;10651;47.552;7.606;2022-09-20T18:32:00;2.53;;;1.50;;
20984;SDS011;10651;47.552;7.606;2022-09-20T18:34:29;5.40;;;1.60;;
20984;SDS011;10651;47.552;7.606;2022-09-20T18:36:58;3.22;;;1.80;;
20984;SDS011;10651;47.552;7.606;2022-09-20T18:39:29;3.55;;;1.50;;
20984;SDS011;10651;47.552;7.606;2022-09-20T18:41:58;3.25;;;1.80;;
20984;SDS011;10651;47.552;7.606;2022-09-20T18:44:25;6.57;;;2.08;;
20984;SDS011;10651;47.552;7.606;2022-09-20T18:47:02;6.10;;;1.70;;
20984;SDS011;10651;47.552;7.606;2022-09-20T18:49:29;3.72;;;1.50;;
20984;SDS011;10651;47.552;7.606;2022-09-20T18:51:55;5.57;;;1.73;;
20984;SDS011;10651;47.552;7.606;2022-09-20T18:54:24;3.72;;;1.85;;
20984;SDS011;10651;47.552;7.606;2022-09-20T18:56:54;5.75;;;1.63;;
20984;SDS011;10651;47.552;7.606;2022-09-20T18:59:23;3.00;;;1.67;;
20984;SDS011;10651;47.552;7.606;2022-09-20T19:20:27;6.72;;;2.42;;
20984;SDS011;10651;47.552;7.606;2022-09-20T19:23:16;3.50;;;1.52;;
20984;SDS011;10651;47.552;7.606;2022-09-20T19:29:23;3.45;;;2.22;;
20984;SDS011;10651;47.552;7.606;2022-09-20T19:31:57;5.78;;;2.00;;
20984;SDS011;10651;47.552;7.606;2022-09-20T19:34:25;4.75;;;1.65;;
20984;SDS011;10651;47.552;7.606;2022-09-20T19:39:30;3.97;;;2.38;;
20984;SDS011;10651;47.552;7.606;2022-09-20T19:51:05;8.15;;;2.80;;
20984;SDS011;10651;47.552;7.606;2022-09-20T19:53:39;6.82;;;3.00;;
20984;SDS011;10651;47.552;7.606;2022-09-20T19:56:19;8.18;;;2.63;;
20984;SDS011;10651;47.552;7.606;2022-09-20T19:59:12;8.15;;;3.10;;
20984;SDS011;10651;47.552;7.606;2022-09-20T20:01:39;7.60;;;3.10;;
20984;SDS011;10651;47.552;7.606;2022-09-20T20:04:07;4.35;;;2.83;;
20984;SDS011;10651;47.552;7.606;2022-09-20T20:09:06;8.65;;;2.97;;
20984;SDS011;10651;47.552;7.606;2022-09-20T20:23:25;5.63;;;2.95;;
20984;SDS011;10651;47.552;7.606;2022-09-20T20:28:45;10.07;;;3.97;;
20984;SDS011;10651;47.552;7.606;2022-09-20T20:31:11;3.72;;;2.83;;
20984;SDS011;10651;47.552;7.606;2022-09-20T20:33:43;3.70;;;2.55;;
20984;SDS011;10651;47.552;7.606;2022-09-20T20:36:12;7.65;;;2.67;;
20984;SDS011;10651;47.552;7.606;2022-09-20T20:38:45;6.50;;;2.58;;
20984;SDS011;10651;47.552;7.606;2022-09-20T20:41:35;4.75;;;2.45;;
20984;SDS011;10651;47.552;7.606;2022-09-20T20:44:03;7.03;;;2.70;;
20984;SDS011;10651;47.552;7.606;2022-09-20T20:46:30;5.93;;;2.33;;
20984;SDS011;10651;47.552;7.606;2022-09-20T20:49:01;4.15;;;2.35;;
20984;SDS011;10651;47.552;7.606;2022-09-20T20:51:27;6.38;;;2.20;;
20984;SDS011;10651;47.552;7.606;2022-09-20T20:53:58;7.15;;;2.65;;
20984;SDS011;10651;47.552;7.606;2022-09-20T20:56:29;3.83;;;2.53;;
20984;SDS011;10651;47.552;7.606;2022-09-20T20:58:56;4.03;;;2.00;;
20984;SDS011;10651;47.552;7.606;2022-09-20T21:01:30;7.10;;;2.53;;
20984;SDS011;10651;47.552;7.606;2022-09-20T21:04:03;6.32;;;2.70;;
20984;SDS011;10651;47.552;7.606;2022-09-20T21:06:32;5.30;;;2.80;;
20984;SDS011;10651;47.552;7.606;2022-09-20T21:09:04;4.07;;;2.70;;
20984;SDS011;10651;47.552;7.606;2022-09-20T21:11:35;5.80;;;2.45;;
20984;SDS011;10651;47.552;7.606;2022-09-20T21:14:10;5.03;;;2.10;;
20984;SDS011;10651;47.552;7.606;2022-09-20T21:16:49;7.07;;;2.20;;
20984;SDS011;10651;47.552;7.606;2022-09-20T21:19:18;4.72;;;2.38;;
20984;SDS011;10651;47.552;7.606;2022-09-20T21:21:51;4.88;;;2.20;;
20984;SDS011;10651;47.552;7.606;2022-09-20T21:24:17;6.07;;;2.20;;
20984;SDS011;10651;47.552;7.606;2022-09-20T21:26:43;5.65;;;2.20;;
20984;SDS011;10651;47.552;7.606;2022-09-20T21:29:13;5.55;;;2.25;;
20984;SDS011;10651;47.552;7.606;2022-09-20T21:31:41;4.10;;;2.10;;
20984;SDS011;10651;47.552;7.606;2022-09-20T21:34:14;7.32;;;2.50;;
20984;SDS011;10651;47.552;7.606;2022-09-20T21:36:40;7.03;;;2.58;;
20984;SDS011;10651;47.552;7.606;2022-09-20T21:39:08;5.97;;;2.25;;
20984;SDS011;10651;47.552;7.606;2022-09-20T21:41:36;9.98;;;2.58;;
20984;SDS011;10651;47.552;7.606;2022-09-20T21:44:05;5.28;;;2.30;;
20984;SDS011;10651;47.552;7.606;2022-09-20T21:46:40;4.95;;;2.55;;
20984;SDS011;10651;47.552;7.606;2022-09-20T21:49:07;6.68;;;2.60;;
20984;SDS011;10651;47.552;7.606;2022-09-20T21:51:35;5.28;;;2.53;;
20984;SDS011;10651;47.552;7.606;2022-09-20T21:54:01;4.53;;;2.13;;
20984;SDS011;10651;47.552;7.606;2022-09-20T21:56:28;5.45;;;2.30;;
20984;SDS011;10651;47.552;7.606;2022-09-20T21:59:02;3.90;;;2.50;;
20984;SDS011;10651;47.552;7.606;2022-09-20T22:01:36;3.70;;;2.45;;
20984;SDS011;10651;47.552;7.606;2022-09-20T22:04:06;3.75;;;2.45;;
20984;SDS011;10651;47.552;7.606;2022-09-20T22:07:01;5.78;;;2.83;;
20984;SDS011;10651;47.552;7.606;2022-09-20T22:09:32;8.35;;;2.80;;
20984;SDS011;10651;47.552;7.606;2022-09-20T22:12:10;3.50;;;2.13;;
20984;SDS011;10651;47.552;7.606;2022-09-20T22:14:41;4.78;;;2.45;;
20984;SDS011;10651;47.552;7.606;2022-09-20T22:17:08;4.50;;;2.55;;
20984;SDS011;10651;47.552;7.606;2022-09-20T22:19:39;7.75;;;2.85;;
20984;SDS011;10651;47.552;7.606;2022-09-20T22:22:05;7.90;;;3.00;;
20984;SDS011;10651;47.552;7.606;2022-09-20T22:24:30;5.22;;;2.28;;
20984;SDS011;10651;47.552;7.606;2022-09-20T22:26:56;10.05;;;2.80;;
20984;SDS011;10651;47.552;7.606;2022-09-20T22:29:24;8.85;;;2.65;;
20984;SDS011;10651;47.552;7.606;2022-09-20T22:31:53;4.78;;;2.60;;
20984;SDS011;10651;47.552;7.606;2022-09-20T22:34:19;7.88;;;2.42;;
20984;SDS011;10651;47.552;7.606;2022-09-20T22:36:46;4.95;;;2.92;;
